Time;durP1;ratioP1;P1;durP2;ratioP2;P2;SDS_P1;SDS_P2;PMS_P1;PMS_P2;Temp;Humidity;BMP_temperature;BMP_pressure;BME280_temperature;BME280_humidity;BME280_pressure;Samples;Min_cycle;Max_cycle;Signal;HPM_P1;HPM_P2
2021/12/27 00:01:45;;;;;;;;;6.00;5.33;;;;;11.08;83.50;99787.22;5036128;28;45294;-51
2021/12/27 00:04:11;;;;;;;;;13.00;7.00;;;;;11.07;83.17;99777.56;5036218;28;45417;-52
2021/12/27 00:06:36;;;;;;;;;11.00;8.00;;;;;11.08;83.17;99773.91;5036677;28;45337;-53
2021/12/27 00:09:02;;;;;;;;;8.00;5.00;;;;;11.08;83.16;99772.09;5035993;28;45160;-52
2021/12/27 00:11:28;;;;;;;;;8.00;6.33;;;;;10.95;83.44;99748.66;5039643;28;45306;-54
2021/12/27 00:13:53;;;;;;;;;9.00;6.00;;;;;11.07;83.26;99762.44;5039758;28;45465;-51
2021/12/27 00:16:18;;;;;;;;;2.67;2.67;;;;;11.10;83.09;99755.94;5039833;28;45354;-54
2021/12/27 00:18:44;;;;;;;;;6.00;3.00;;;;;11.10;83.75;99755.94;5039469;28;45259;-50
2021/12/27 00:21:09;;;;;;;;;7.00;5.33;;;;;11.10;83.54;99758.59;5039600;28;45176;-52
2021/12/27 00:23:35;;;;;;;;;5.33;3.67;;;;;11.06;83.52;99749.31;5039734;28;45502;-52
2021/12/27 00:26:00;;;;;;;;;8.00;6.00;;;;;11.10;83.71;99753.28;5039700;28;45469;-51
2021/12/27 00:28:27;;;;;;;;;6.33;3.00;;;;;11.11;83.58;99747.78;5021367;28;47956;-48
2021/12/27 00:30:52;;;;;;;;;7.00;1.67;;;;;11.13;83.42;99755.59;5039439;28;45343;-52
2021/12/27 00:33:17;;;;;;;;;2.67;2.67;;;;;11.15;82.97;99745.59;5039338;28;45306;-52
2021/12/27 00:35:43;;;;;;;;;2.67;2.67;;;;;11.16;82.96;99750.72;5039461;28;45424;-54
2021/12/27 00:38:08;;;;;;;;;4.67;3.33;;;;;11.17;83.22;99733.78;5038936;28;45927;-51
2021/12/27 00:40:35;;;;;;;;;1.67;1.67;;;;;11.14;82.61;99731.47;5038842;28;45333;-52
2021/12/27 00:43:00;;;;;;;;;3.67;2.00;;;;;10.85;82.92;99686.03;5039021;28;45389;-52
2021/12/27 00:45:25;;;;;;;;;5.33;4.00;;;;;11.18;83.47;99734.59;5039192;28;45341;-52
2021/12/27 00:47:51;;;;;;;;;3.00;2.00;;;;;11.08;83.13;99716.19;5038730;28;46105;-53
2021/12/27 00:50:17;;;;;;;;;2.00;2.00;;;;;11.18;83.34;99738.09;5038742;28;45806;-50
2021/12/27 00:52:42;;;;;;;;;2.33;1.67;;;;;11.16;82.84;99737.41;5038790;28;45160;-53
2021/12/27 00:55:10;;;;;;;;;2.33;2.00;;;;;11.15;83.39;99741.09;5038822;28;45252;-53
2021/12/27 00:57:36;;;;;;;;;5.33;2.00;;;;;11.12;83.22;99741.44;5038833;28;45998;-52
2021/12/27 01:00:04;;;;;;;;;4.00;3.00;;;;;11.12;83.59;99737.94;5038755;28;45381;-52
2021/12/27 01:02:30;;;;;;;;;3.33;3.00;;;;;11.08;83.40;99729.50;5021111;28;45376;-53
2021/12/27 01:04:55;;;;;;;;;2.33;2.00;;;;;11.10;83.26;99737.31;5039121;28;45350;-54
2021/12/27 01:07:20;;;;;;;;;4.33;1.00;;;;;11.06;83.08;99722.69;5038855;28;45270;-52
2021/12/27 01:10:16;;;;;;;;;6.33;1.00;;;;;11.07;83.27;99729.66;5038756;28;45472;-52
2021/12/27 01:13:21;;;;;;;;;3.67;2.00;;;;;11.08;83.17;99720.66;5038769;28;45433;-53
2021/12/27 01:16:20;;;;;;;;;2.00;2.00;;;;;11.09;83.01;99725.84;5035035;28;45397;-53
2021/12/27 01:18:21;;;;;;;;;5.67;2.00;;;;;11.10;82.96;99721.34;5031037;28;45281;-54
2021/12/27 01:20:46;;;;;;;;;1.67;1.00;;;;;11.11;83.31;99720.31;5038533;28;45365;-54
2021/12/27 01:23:12;;;;;;;;;2.00;2.00;;;;;11.11;82.95;99717.66;5038744;28;45340;-52
2021/12/27 01:25:39;;;;;;;;;2.33;2.00;;;;;11.10;83.17;99716.84;5038845;28;45448;-52
2021/12/27 01:28:05;;;;;;;;;2.33;1.67;;;;;11.11;82.65;99704.34;5038254;28;46283;-52
2021/12/27 01:30:36;;;;;;;;;2.00;2.00;;;;;11.05;83.16;99697.91;5038399;28;45290;-53
2021/12/27 01:33:03;;;;;;;;;2.00;2.00;;;;;11.14;82.97;99704.00;5038355;28;45399;-54
2021/12/27 01:35:29;;;;;;;;;2.00;2.00;;;;;11.15;83.03;99706.50;5038438;28;45409;-53
2021/12/27 01:37:55;;;;;;;;;3.33;1.67;;;;;11.16;82.89;99702.81;5038325;28;45957;-51
2021/12/27 01:40:25;;;;;;;;;1.33;1.00;;;;;11.18;82.89;99698.16;5037816;28;45449;-50
2021/12/27 01:43:00;;;;;;;;;3.00;3.00;;;;;11.20;82.71;99696.13;5038230;28;45332;-53
2021/12/27 01:45:26;;;;;;;;;4.00;2.00;;;;;11.23;82.61;99697.63;5038519;28;45432;-51
2021/12/27 01:47:52;;;;;;;;;3.00;2.33;;;;;11.14;82.97;99677.41;5020014;28;47032;-54
2021/12/27 01:50:17;;;;;;;;;2.00;1.00;;;;;11.25;82.63;99690.31;5038198;28;45373;-54
2021/12/27 01:52:43;;;;;;;;;2.00;2.00;;;;;11.25;83.06;99687.66;5038236;28;45282;-53
2021/12/27 01:55:08;;;;;;;;;6.33;5.00;;;;;11.26;82.44;99691.13;5038438;28;45357;-50
2021/12/27 01:57:34;;;;;;;;;6.67;5.00;;;;;11.24;82.83;99680.66;5037750;28;45346;-53
2021/12/27 01:59:59;;;;;;;;;6.00;3.00;;;;;11.22;82.81;99688.81;5037950;28;45172;-52
2021/12/27 02:02:25;;;;;;;;;6.33;3.00;;;;;11.21;83.31;99689.84;5038141;28;45323;-52
2021/12/27 02:04:51;;;;;;;;;2.00;2.00;;;;;11.19;82.84;99693.66;5038298;28;45332;-53
2021/12/27 02:07:16;;;;;;;;;3.00;2.00;;;;;11.16;83.38;99691.34;5037703;28;46096;-53
2021/12/27 02:09:52;;;;;;;;;5.00;5.00;;;;;11.15;83.34;99693.19;5037695;28;45401;-53
2021/12/27 02:12:18;;;;;;;;;3.00;2.00;;;;;11.18;83.69;99690.19;5019870;28;45522;-53
2021/12/27 02:14:43;;;;;;;;;2.00;2.00;;;;;11.19;84.04;99685.69;5038127;28;45378;-53
2021/12/27 02:17:09;;;;;;;;;5.33;1.00;;;;;11.19;83.77;99688.34;5037550;28;46070;-49
2021/12/27 02:19:37;;;;;;;;;3.67;2.00;;;;;11.16;83.31;99681.53;5037664;28;45444;-51
2021/12/27 02:22:03;;;;;;;;;1.33;1.33;;;;;11.16;83.45;99688.69;5037696;28;45379;-51
2021/12/27 02:24:28;;;;;;;;;2.00;2.00;;;;;11.15;83.76;99676.38;5038020;28;45308;-52
2021/12/27 02:26:54;;;;;;;;;5.00;1.00;;;;;11.12;83.63;99668.75;5037404;28;46994;-56
2021/12/27 02:29:19;;;;;;;;;2.67;2.67;;;;;11.13;83.29;99687.22;5037458;28;45570;-50
2021/12/27 02:31:45;;;;;;;;;2.00;0.00;;;;;11.12;83.05;99674.06;5037356;28;45369;-53
2021/12/27 02:34:10;;;;;;;;;4.67;3.67;;;;;11.05;83.74;99658.00;5037682;28;45395;-51
2021/12/27 02:36:36;;;;;;;;;4.00;2.00;;;;;11.09;83.35;99667.28;5036403;28;45518;-49
2021/12/27 02:39:02;;;;;;;;;5.00;2.00;;;;;11.05;83.97;99665.97;5037148;28;45251;-50
2021/12/27 02:41:28;;;;;;;;;4.33;4.33;;;;;11.10;84.06;99668.09;5037723;28;45360;-52
2021/12/27 02:43:53;;;;;;;;;6.33;3.00;;;;;11.06;84.27;99667.63;5037388;28;45393;-52
2021/12/27 02:46:19;;;;;;;;;3.00;3.00;;;;;11.10;83.75;99665.44;5037435;28;45321;-53
2021/12/27 02:48:47;;;;;;;;;5.00;2.67;;;;;11.09;83.85;99667.28;5037222;28;45342;-53
2021/12/27 02:51:14;;;;;;;;;7.00;3.67;;;;;11.09;83.87;99663.81;5037369;28;45183;-53
2021/12/27 02:53:39;;;;;;;;;2.00;2.00;;;;;11.10;84.08;99655.63;5037479;28;45364;-53
2021/12/27 02:56:06;;;;;;;;;3.00;2.00;;;;;11.05;84.07;99657.16;5037121;28;46088;-52
2021/12/27 02:58:33;;;;;;;;;3.33;2.33;;;;;11.08;83.71;99660.31;5037008;28;45257;-52
2021/12/27 03:01:02;;;;;;;;;6.67;4.00;;;;;11.03;83.95;99644.03;5037366;28;45448;-53
2021/12/27 03:03:28;;;;;;;;;3.33;2.67;;;;;11.08;83.78;99647.00;5037284;28;45535;-56
2021/12/27 03:05:54;;;;;;;;;5.00;3.00;;;;;11.08;83.61;99638.16;5037119;28;45380;-53
2021/12/27 03:08:21;;;;;;;;;2.33;2.33;;;;;11.11;83.37;99638.66;5037111;28;45299;-52
2021/12/27 03:10:52;;;;;;;;;3.00;3.00;;;;;11.11;83.18;99640.47;5037139;28;45291;-54
2021/12/27 03:13:29;;;;;;;;;5.67;5.00;;;;;11.12;83.46;99640.28;5037252;28;45246;-54
2021/12/27 03:16:00;;;;;;;;;4.67;3.00;;;;;11.11;83.13;99641.31;5036735;28;47199;-53
2021/12/27 03:18:27;;;;;;;;;3.67;2.33;;;;;11.11;82.91;99635.97;5036731;28;45341;-52
2021/12/27 03:20:53;;;;;;;;;7.00;3.00;;;;;11.06;82.83;99633.03;5037006;28;45262;-53
2021/12/27 03:23:19;;;;;;;;;2.67;2.00;;;;;11.05;82.85;99627.91;5037011;28;45518;-53
2021/12/27 03:25:45;;;;;;;;;6.00;1.00;;;;;11.10;83.08;99637.00;5036676;28;46261;-53
2021/12/27 03:28:11;;;;;;;;;3.00;2.00;;;;;11.12;82.98;99639.47;5036428;28;45485;-52
2021/12/27 03:30:37;;;;;;;;;3.00;3.00;;;;;11.02;82.63;99613.09;5036868;28;45353;-54
2021/12/27 03:33:04;;;;;;;;;7.67;2.00;;;;;11.11;82.56;99629.84;5036913;28;45302;-54
2021/12/27 03:35:35;;;;;;;;;7.00;5.33;;;;;11.09;82.71;99627.38;5036601;28;46101;-54
2021/12/27 03:38:03;;;;;;;;;8.00;3.67;;;;;11.09;82.78;99616.72;5036449;28;45409;-53
2021/12/27 03:40:28;;;;;;;;;2.67;2.67;;;;;11.03;82.56;99606.75;5036627;28;45359;-54
2021/12/27 03:42:55;;;;;;;;;6.00;4.33;;;;;11.11;83.08;99614.69;5036700;28;45584;-53
2021/12/27 03:45:30;;;;;;;;;3.67;3.00;;;;;11.11;83.00;99612.03;5038483;28;47202;-51
2021/12/27 03:47:56;;;;;;;;;4.00;3.00;;;;;11.11;83.39;99606.69;5040005;28;45521;-51
2021/12/27 03:50:24;;;;;;;;;8.00;4.33;;;;;11.10;83.31;99602.41;5040010;28;45393;-52
2021/12/27 03:52:52;;;;;;;;;7.33;4.00;;;;;11.10;82.95;99598.91;5040023;28;45502;-53
2021/12/27 03:55:17;;;;;;;;;7.33;5.00;;;;;10.96;82.74;99573.91;5039776;28;46215;-54
2021/12/27 03:57:51;;;;;;;;;11.00;7.00;;;;;11.10;83.22;99593.59;5039717;28;45388;-52
2021/12/27 04:02:49;;;;;;;;;2.00;2.00;;;;;11.05;82.88;99590.63;5040026;28;45195;-53
2021/12/27 04:05:15;;;;;;;;;7.00;4.67;;;;;11.03;82.82;99580.16;5039643;28;45370;-53
2021/12/27 04:07:43;;;;;;;;;6.67;5.33;;;;;11.06;83.06;99585.13;5039715;28;45428;-51
2021/12/27 04:10:10;;;;;;;;;5.00;5.00;;;;;11.04;82.77;99581.81;5039767;28;45449;-52
2021/12/27 04:12:36;;;;;;;;;7.67;4.67;;;;;11.09;82.97;99591.94;5039768;28;45447;-53
2021/12/27 04:15:04;;;;;;;;;3.00;3.00;;;;;11.07;82.84;99586.78;5038349;28;45381;-52
2021/12/27 04:17:30;;;;;;;;;11.67;3.00;;;;;11.07;82.98;99586.78;5039483;28;45450;-53
2021/12/27 04:19:55;;;;;;;;;7.67;3.33;;;;;11.09;82.77;99586.63;5039699;28;45241;-53
2021/12/27 04:22:21;;;;;;;;;6.33;6.00;;;;;11.06;82.89;99581.63;5040135;28;45347;-54
2021/12/27 04:24:47;;;;;;;;;10.00;3.00;;;;;11.10;82.74;99575.78;5039367;28;46413;-53
2021/12/27 04:27:12;;;;;;;;;4.00;2.67;;;;;11.11;82.69;99577.44;5039025;28;45373;-54
2021/12/27 04:29:38;;;;;;;;;10.33;3.67;;;;;11.10;82.87;99577.63;5039393;28;45366;-51
2021/12/27 04:32:03;;;;;;;;;3.67;3.00;;;;;11.12;82.74;99575.59;5039791;28;45441;-54
2021/12/27 04:34:29;;;;;;;;;5.00;4.00;;;;;11.12;82.99;99580.91;5039497;28;47036;-53
2021/12/27 04:36:54;;;;;;;;;10.00;4.00;;;;;11.02;82.69;99567.03;5039429;28;45319;-51
2021/12/27 04:39:20;;;;;;;;;8.00;6.33;;;;;11.07;82.79;99584.13;5039652;28;45240;-52
2021/12/27 04:41:46;;;;;;;;;6.67;5.33;;;;;11.09;82.80;99586.63;5039662;28;45303;-53
2021/12/27 04:44:11;;;;;;;;;6.33;5.67;;;;;11.08;82.71;99575.16;5039065;28;46926;-53
2021/12/27 04:46:37;;;;;;;;;6.00;6.00;;;;;11.08;82.66;99574.28;5039133;28;45378;-53
2021/12/27 04:49:02;;;;;;;;;2.67;2.67;;;;;11.08;82.71;99588.44;5039216;28;45707;-51
2021/12/27 04:51:28;;;;;;;;;6.33;3.00;;;;;11.09;82.55;99590.09;5039488;28;45306;-50
2021/12/27 04:53:54;;;;;;;;;6.33;5.00;;;;;11.06;82.60;99592.28;5039039;28;45261;-54
2021/12/27 04:56:19;;;;;;;;;5.33;5.33;;;;;11.05;82.73;99601.28;5038690;28;45833;-53
2021/12/27 04:58:46;;;;;;;;;6.00;4.33;;;;;11.06;82.51;99601.09;5039039;28;45335;-51
2021/12/27 05:01:12;;;;;;;;;6.67;1.67;;;;;11.05;82.38;99602.09;5039322;28;45377;-53
2021/12/27 05:03:37;;;;;;;;;5.00;5.00;;;;;11.02;82.15;99602.47;5038707;28;45361;-52
2021/12/27 05:06:03;;;;;;;;;7.33;4.00;;;;;11.02;82.45;99601.63;5038767;28;45415;-49
2021/12/27 05:08:29;;;;;;;;;7.67;3.67;;;;;11.03;82.46;99608.59;5038760;28;45408;-53
2021/12/27 05:10:54;;;;;;;;;3.67;3.67;;;;;11.00;82.30;99617.78;5039315;28;45500;-51
2021/12/27 05:13:20;;;;;;;;;8.67;5.00;;;;;10.98;82.48;99609.97;5038871;28;46048;-53
2021/12/27 05:15:46;;;;;;;;;7.33;6.00;;;;;10.97;82.42;99618.94;5038600;28;45361;-53
2021/12/27 05:18:12;;;;;;;;;4.33;4.33;;;;;10.96;82.57;99605.84;5038611;28;45402;-52
2021/12/27 05:20:37;;;;;;;;;6.33;3.00;;;;;10.96;82.44;99611.16;5038754;28;45321;-53
2021/12/27 05:23:03;;;;;;;;;4.33;4.33;;;;;10.96;82.40;99616.47;5038652;28;45918;-49
2021/12/27 05:25:28;;;;;;;;;5.33;5.33;;;;;10.93;82.18;99607.00;5038527;28;45358;-53
2021/12/27 05:27:53;;;;;;;;;9.33;8.00;;;;;10.96;82.41;99604.00;5038663;28;45771;-50
2021/12/27 05:30:20;;;;;;;;;10.00;7.33;;;;;10.96;82.32;99598.69;5038568;28;45218;-51
2021/12/27 05:32:46;;;;;;;;;5.00;3.00;;;;;10.97;82.12;99603.00;5038357;28;46190;-48
2021/12/27 05:35:13;;;;;;;;;5.67;5.00;;;;;10.94;82.39;99598.00;5038314;28;45413;-50
2021/12/27 05:37:39;;;;;;;;;11.33;6.33;;;;;10.94;82.61;99599.84;5037305;28;45315;-52
2021/12/27 05:40:09;;;;;;;;;11.67;6.00;;;;;10.96;82.40;99595.19;5038550;28;45437;-48
2021/12/27 05:42:35;;;;;;;;;6.33;4.33;;;;;10.93;82.11;99580.41;5037629;28;46839;-50
2021/12/27 05:45:01;;;;;;;;;8.67;6.00;;;;;10.90;82.44;99583.41;5020019;28;45312;-52
2021/12/27 05:47:27;;;;;;;;;12.67;8.67;;;;;10.87;82.55;99567.81;5038197;28;45370;-51
2021/12/27 05:49:52;;;;;;;;;8.67;7.00;;;;;10.89;82.74;99562.31;5038359;28;45432;-53
2021/12/27 05:52:18;;;;;;;;;13.33;8.00;;;;;10.91;82.57;99542.50;5038166;28;46385;-54
2021/12/27 05:54:43;;;;;;;;;11.67;7.00;;;;;10.86;82.86;99536.88;5038164;28;45346;-54
2021/12/27 05:57:09;;;;;;;;;7.00;5.00;;;;;10.87;82.83;99530.56;5038153;28;45447;-52
2021/12/27 05:59:34;;;;;;;;;10.00;6.00;;;;;10.87;82.60;99530.56;5038077;28;45425;-53
2021/12/27 06:01:59;;;;;;;;;11.00;8.00;;;;;10.85;82.72;99521.94;5037771;28;46085;-51
2021/12/27 06:04:25;;;;;;;;;7.00;7.00;;;;;10.81;82.62;99517.16;5037999;28;45302;-51
2021/12/27 06:06:50;;;;;;;;;11.67;8.00;;;;;10.78;82.42;99502.34;5037352;28;45335;-51
2021/12/27 06:09:16;;;;;;;;;8.00;6.00;;;;;10.79;82.73;99504.03;5037808;28;45468;-51
2021/12/27 06:11:41;;;;;;;;;6.67;6.00;;;;;10.73;82.84;99489.59;5038018;28;45481;-55
2021/12/27 06:14:07;;;;;;;;;10.33;8.00;;;;;10.73;82.84;99486.94;5037771;28;45326;-54
2021/12/27 06:16:32;;;;;;;;;8.33;6.00;;;;;10.74;83.04;99475.31;5037868;28;45322;-54
2021/12/27 06:18:59;;;;;;;;;8.00;6.00;;;;;10.70;82.92;99458.06;5038005;28;45407;-53
2021/12/27 06:21:24;;;;;;;;;12.00;5.00;;;;;10.68;82.88;99465.38;5037667;28;45345;-51
2021/12/27 06:23:50;;;;;;;;;6.00;3.00;;;;;10.62;82.85;99450.13;5037758;28;45249;-53
2021/12/27 06:26:15;;;;;;;;;7.00;5.67;;;;;10.58;82.84;99430.22;5039393;28;45776;-51
2021/12/27 06:28:41;;;;;;;;;6.33;4.00;;;;;10.56;82.77;99426.91;5042169;28;44859;-51
2021/12/27 06:31:06;;;;;;;;;8.33;5.00;;;;;10.51;82.58;99421.31;5041404;28;46211;-50
2021/12/27 06:33:32;;;;;;;;;8.33;5.33;;;;;10.51;82.68;99425.78;5042952;28;45305;-52
2021/12/27 06:35:58;;;;;;;;;9.67;6.33;;;;;10.48;82.82;99411.84;5045585;28;45224;-51
2021/12/27 06:38:23;;;;;;;;;5.00;3.00;;;;;10.47;82.46;99407.53;5044465;28;45242;-52
2021/12/27 06:40:49;;;;;;;;;7.33;4.33;;;;;10.48;82.68;99397.72;5045336;28;46868;-52
2021/12/27 06:43:15;;;;;;;;;8.33;7.67;;;;;10.45;82.43;99385.63;5041790;28;45341;-53
2021/12/27 06:45:41;;;;;;;;;5.00;5.00;;;;;10.43;82.24;99381.47;5039714;28;45212;-58
2021/12/27 06:48:06;;;;;;;;;12.00;6.00;;;;;10.43;82.57;99376.16;5037672;28;45356;-52
2021/12/27 06:50:32;;;;;;;;;6.00;6.00;;;;;10.32;82.41;99365.94;5036429;28;46234;-54
2021/12/27 06:52:57;;;;;;;;;12.00;7.00;;;;;10.40;82.09;99376.53;5037568;28;45223;-53
2021/12/27 06:55:23;;;;;;;;;10.00;7.00;;;;;10.38;82.20;99390.00;5037872;28;45309;-53
2021/12/27 06:57:49;;;;;;;;;5.00;5.00;;;;;10.36;82.41;99380.53;5037485;28;45279;-53
2021/12/27 07:00:15;;;;;;;;;9.33;7.33;;;;;10.38;82.29;99383.84;5036913;28;46362;-51
2021/12/27 07:02:42;;;;;;;;;7.00;7.00;;;;;10.37;82.32;99383.03;5037042;28;45378;-50
2021/12/27 07:05:08;;;;;;;;;7.33;5.33;;;;;10.34;81.96;99386.03;5037240;28;45415;-53
2021/12/27 07:07:34;;;;;;;;;9.00;5.67;;;;;10.36;82.07;99386.69;5037339;28;45441;-54
2021/12/27 07:09:59;;;;;;;;;6.67;5.00;;;;;10.37;82.01;99390.19;5018866;28;46384;-51
2021/12/27 07:12:25;;;;;;;;;8.67;8.67;;;;;10.31;82.07;99374.94;5037054;28;45381;-52
2021/12/27 07:14:50;;;;;;;;;6.67;5.00;;;;;10.36;82.13;99383.19;5037319;28;45420;-50
2021/12/27 07:17:16;;;;;;;;;4.67;2.33;;;;;10.39;81.86;99382.84;5036979;28;46531;-51
2021/12/27 07:19:41;;;;;;;;;7.00;5.67;;;;;10.36;81.75;99383.19;5036973;28;45932;-51
2021/12/27 07:22:07;;;;;;;;;6.67;6.67;;;;;10.37;81.75;99382.22;5036822;28;45405;-49
2021/12/27 07:24:33;;;;;;;;;8.00;6.67;;;;;10.35;81.59;99378.91;5036768;28;45256;-52
2021/12/27 07:26:59;;;;;;;;;5.33;5.00;;;;;10.36;81.22;99377.88;5037225;28;45381;-52
2021/12/27 07:29:24;;;;;;;;;9.00;5.00;;;;;10.34;81.31;99383.38;5036360;28;45396;-52
2021/12/27 07:31:50;;;;;;;;;6.33;4.67;;;;;10.36;81.41;99380.53;5036673;28;45337;-53
2021/12/27 07:34:19;;;;;;;;;5.67;5.67;;;;;10.37;81.63;99376.91;5036763;28;45210;-51
2021/12/27 07:36:48;;;;;;;;;7.00;6.33;;;;;10.34;81.26;99394.03;5036850;28;46107;-50
2021/12/27 07:39:14;;;;;;;;;4.00;2.00;;;;;10.29;81.50;99390.25;5036538;28;46262;-51
2021/12/27 07:41:40;;;;;;;;;4.33;4.00;;;;;10.28;81.42;99399.19;5036537;28;45478;-52
2021/12/27 07:44:06;;;;;;;;;6.33;6.00;;;;;10.14;81.76;99377.69;5036701;28;45295;-52
2021/12/27 07:46:32;;;;;;;;;6.00;3.67;;;;;10.27;81.55;99398.38;5036632;28;45322;-52
2021/12/27 07:48:57;;;;;;;;;6.00;4.67;;;;;10.29;81.74;99392.91;5036371;28;46256;-51
2021/12/27 07:51:22;;;;;;;;;6.67;5.00;;;;;10.24;81.51;99394.25;5036769;28;45318;-50
2021/12/27 07:53:48;;;;;;;;;3.00;3.00;;;;;10.11;81.58;99363.91;5036604;28;45318;-52
2021/12/27 07:56:13;;;;;;;;;6.67;6.00;;;;;10.14;82.53;99376.84;5036615;28;45421;-51
2021/12/27 07:58:39;;;;;;;;;7.33;5.67;;;;;10.16;82.09;99393.47;5036315;28;46180;-52
2021/12/27 08:01:04;;;;;;;;;6.33;4.33;;;;;10.13;82.50;99386.66;5036167;28;45472;-50
2021/12/27 08:03:30;;;;;;;;;2.00;2.00;;;;;10.15;82.09;99386.47;5036661;28;45526;-53
2021/12/27 08:05:55;;;;;;;;;2.33;2.00;;;;;10.15;82.06;99383.81;5036608;28;45247;-49
2021/12/27 08:08:21;;;;;;;;;3.00;2.33;;;;;10.13;81.62;99381.34;5036372;28;45378;-53
2021/12/27 08:10:47;;;;;;;;;6.00;3.67;;;;;10.11;81.68;99371.88;5036501;28;45448;-53
2021/12/27 08:13:12;;;;;;;;;9.00;5.67;;;;;10.14;81.22;99371.53;5036249;28;45204;-50
2021/12/27 08:15:38;;;;;;;;;6.33;5.67;;;;;10.13;81.57;99375.22;5036617;28;45270;-50
2021/12/27 08:18:04;;;;;;;;;5.67;5.67;;;;;10.14;81.35;99380.34;5023936;28;46009;-51
2021/12/27 08:20:29;;;;;;;;;6.33;3.33;;;;;10.12;81.42;99363.75;5036045;28;45345;-53
2021/12/27 08:22:54;;;;;;;;;6.00;3.00;;;;;10.14;81.43;99372.38;5036277;28;45667;-53
2021/12/27 08:25:20;;;;;;;;;7.00;5.00;;;;;10.14;80.71;99366.22;5036324;28;45256;-54
2021/12/27 08:27:46;;;;;;;;;4.67;4.67;;;;;10.11;81.05;99374.53;5036022;28;46107;-49
2021/12/27 08:30:13;;;;;;;;;6.00;2.50;;;;;10.06;81.10;99364.44;5036395;28;45370;-51
2021/12/27 08:32:42;;;;;;;;;3.00;3.00;;;;;10.12;81.13;99358.44;5039300;28;45288;-51
2021/12/27 08:35:09;;;;;;;;;5.33;5.33;;;;;10.07;81.30;99350.19;5039665;28;45521;-51
2021/12/27 08:37:36;;;;;;;;;3.33;3.33;;;;;10.13;81.00;99354.78;5039086;28;46006;-51
2021/12/27 08:40:02;;;;;;;;;9.00;6.33;;;;;10.09;81.01;99353.47;5039015;28;45437;-53
2021/12/27 08:42:28;;;;;;;;;2.67;2.67;;;;;10.11;80.66;99355.94;5039221;28;45301;-52
2021/12/27 08:44:53;;;;;;;;;2.00;2.00;;;;;10.13;80.85;99354.78;5039367;28;45340;-51
2021/12/27 08:47:19;;;;;;;;;3.00;3.00;;;;;9.99;80.55;99337.78;5039236;28;45479;-51
2021/12/27 08:49:45;;;;;;;;;5.33;5.33;;;;;10.08;81.07;99346.53;5039034;28;45329;-52
2021/12/27 08:52:11;;;;;;;;;5.67;3.67;;;;;10.13;80.73;99354.78;5039315;28;45376;-53
2021/12/27 08:54:36;;;;;;;;;6.00;2.33;;;;;10.15;80.76;99352.75;5039276;28;45447;-53
2021/12/27 08:57:04;;;;;;;;;3.33;2.00;;;;;10.14;80.60;99344.97;5038848;28;46317;-50
2021/12/27 08:59:29;;;;;;;;;1.67;1.33;;;;;10.14;80.50;99345.78;5039080;28;45344;-54
2021/12/27 09:01:55;;;;;;;;;7.00;5.00;;;;;10.13;80.73;99341.50;5038811;28;45314;-53
2021/12/27 09:04:20;;;;;;;;;5.33;2.67;;;;;10.11;80.89;99338.19;5039419;28;45426;-53
2021/12/27 09:06:45;;;;;;;;;5.67;3.00;;;;;10.13;80.76;99343.31;5038655;28;45363;-52
2021/12/27 09:09:11;;;;;;;;;2.00;2.00;;;;;10.15;80.69;99342.13;5038714;28;45373;-53
2021/12/27 09:11:36;;;;;;;;;5.00;4.67;;;;;10.17;81.11;99339.31;5039151;28;45167;-52
2021/12/27 09:14:02;;;;;;;;;5.67;5.67;;;;;10.17;80.80;99344.63;5039150;28;45316;-51
2021/12/27 09:16:27;;;;;;;;;2.67;2.67;;;;;10.21;80.44;99341.44;5038954;28;45357;-53
2021/12/27 09:18:53;;;;;;;;;5.00;2.67;;;;;10.17;80.48;99334.00;5038267;28;45405;-53
2021/12/27 09:21:18;;;;;;;;;6.00;4.67;;;;;10.20;80.74;99337.13;5038803;28;45247;-51
2021/12/27 09:23:43;;;;;;;;;6.33;4.67;;;;;10.23;80.75;99342.06;5039081;28;45310;-51
2021/12/27 09:26:09;;;;;;;;;10.33;6.00;;;;;10.26;80.32;99340.09;5038580;28;45843;-52
2021/12/27 09:28:34;;;;;;;;;8.00;5.00;;;;;10.28;80.97;99333.63;5038626;28;45424;-53
2021/12/27 09:31:00;;;;;;;;;5.00;4.67;;;;;10.30;80.66;99331.59;5038716;28;45606;-53
2021/12/27 09:33:26;;;;;;;;;5.00;5.00;;;;;10.32;80.38;99348.16;5038537;28;45413;-50
2021/12/27 09:35:51;;;;;;;;;3.00;2.00;;;;;10.27;80.26;99328.47;5038609;28;45358;-52
2021/12/27 09:38:17;;;;;;;;;3.67;3.33;;;;;10.28;80.67;99317.66;5038365;28;45204;-53
2021/12/27 09:40:43;;;;;;;;;4.67;4.67;;;;;10.33;80.56;99319.78;5038415;28;45225;-53
2021/12/27 09:43:09;;;;;;;;;2.67;2.00;;;;;10.31;80.34;99319.94;5037422;28;45395;-53
2021/12/27 09:45:35;;;;;;;;;10.00;3.00;;;;;10.30;80.33;99331.59;5020128;28;46836;-51
2021/12/27 09:48:01;;;;;;;;;2.67;2.67;;;;;10.25;80.65;99318.00;5038068;28;45390;-53
2021/12/27 09:50:45;;;;;;;;;3.00;3.00;;;;;10.30;80.58;99322.78;5038000;28;45294;-53
2021/12/27 09:53:11;;;;;;;;;3.00;3.00;;;;;10.26;80.68;99319.66;5038110;28;45324;-53
2021/12/27 09:55:37;;;;;;;;;5.00;2.00;;;;;10.30;81.07;99318.28;5038228;28;45941;-52
2021/12/27 09:58:03;;;;;;;;;6.00;4.33;;;;;10.31;80.42;99319.94;5038132;28;45329;-51
2021/12/27 10:00:29;;;;;;;;;6.00;6.00;;;;;10.28;80.80;99316.81;5038230;28;45293;-50
2021/12/27 10:02:57;;;;;;;;;11.00;6.33;;;;;10.15;81.33;99293.47;5038127;28;45313;-51
2021/12/27 10:05:25;;;;;;;;;5.00;5.00;;;;;10.28;80.89;99316.81;5036634;28;47020;-52
2021/12/27 10:07:51;;;;;;;;;0.00;0.00;;;;;10.23;80.90;99322.63;5037944;28;45329;-52
2021/12/27 10:10:17;;;;;;;;;5.00;3.00;;;;;10.23;80.85;99323.47;5037922;28;45252;-53
2021/12/27 10:12:42;;;;;;;;;5.33;5.33;;;;;10.21;81.15;99322.81;5037930;28;45406;-54
2021/12/27 10:15:21;;;;;;;;;5.00;5.00;;;;;10.17;82.04;99326.84;5037515;28;46337;-52
2021/12/27 10:17:47;;;;;;;;;14.00;10.00;;;;;10.18;81.85;99325.84;5037530;28;45429;-52
2021/12/27 10:20:22;;;;;;;;;9.33;7.00;;;;;10.20;82.68;99323.03;5037679;28;45450;-52
2021/12/27 10:22:51;;;;;;;;;11.00;6.67;;;;;10.20;81.48;99313.22;5037851;28;45464;-50
2021/12/27 10:25:24;;;;;;;;;9.00;6.33;;;;;10.17;81.70;99307.41;5037446;28;46020;-52
2021/12/27 10:27:53;;;;;;;;;4.67;4.67;;;;;10.18;81.92;99328.50;5037158;28;46021;-50
2021/12/27 10:30:22;;;;;;;;;6.00;3.00;;;;;10.10;82.76;99317.09;5037473;28;45368;-50
2021/12/27 10:33:05;;;;;;;;;8.67;5.67;;;;;10.08;82.39;99324.44;5037536;28;45452;-50
2021/12/27 10:35:51;;;;;;;;;7.00;6.00;;;;;10.07;83.27;99320.09;5037572;28;46284;-53
2021/12/27 10:38:18;;;;;;;;;5.67;3.67;;;;;10.10;82.84;99317.94;5037400;28;45556;-53
2021/12/27 10:40:54;;;;;;;;;8.67;5.00;;;;;10.10;82.20;99312.63;5037523;28;45430;-53
2021/12/27 10:43:39;;;;;;;;;3.67;3.67;;;;;10.10;82.52;99315.28;5037590;28;45325;-53
2021/12/27 10:46:14;;;;;;;;;3.00;3.00;;;;;10.11;82.13;99303.66;5037240;28;47012;-51
2021/12/27 10:48:43;;;;;;;;;5.00;5.00;;;;;10.09;82.44;99299.53;5037059;28;45444;-51
2021/12/27 10:51:10;;;;;;;;;5.00;4.33;;;;;10.14;82.44;99305.13;5037261;28;45321;-50
2021/12/27 10:53:55;;;;;;;;;6.33;5.00;;;;;10.10;82.44;99301.16;5036906;28;45395;-55
2021/12/27 10:56:23;;;;;;;;;6.33;6.00;;;;;10.15;82.28;99310.25;5037185;28;47233;-51
2021/12/27 10:58:55;;;;;;;;;7.67;6.00;;;;;10.16;82.80;99306.59;5036939;28;45338;-52
2021/12/27 11:01:22;;;;;;;;;5.00;5.00;;;;;10.07;82.58;99291.75;5037101;28;45322;-53
2021/12/27 11:03:50;;;;;;;;;6.33;6.33;;;;;10.17;82.78;99300.28;5037132;28;45397;-53
2021/12/27 11:06:24;;;;;;;;;6.33;6.00;;;;;10.21;82.54;99303.41;5036979;28;46238;-52
2021/12/27 11:08:51;;;;;;;;;5.00;5.00;;;;;10.25;82.92;99320.66;5036734;28;45414;-50
2021/12/27 11:11:18;;;;;;;;;6.00;6.00;;;;;10.26;82.69;99317.00;5036861;28;45274;-49
2021/12/27 11:13:46;;;;;;;;;5.67;5.00;;;;;10.23;82.19;99322.63;5037055;28;45523;-52
2021/12/27 11:16:12;;;;;;;;;6.00;6.00;;;;;10.25;82.78;99331.31;5036745;28;45512;-51
2021/12/27 11:18:37;;;;;;;;;7.00;5.00;;;;;10.29;83.00;99324.63;5036554;28;45287;-50
2021/12/27 11:21:18;;;;;;;;;5.00;5.00;;;;;10.36;82.23;99317.56;5036831;28;45243;-52
2021/12/27 11:23:47;;;;;;;;;7.00;2.33;;;;;10.44;82.07;99314.00;5037022;28;45351;-51
2021/12/27 11:26:15;;;;;;;;;6.67;4.33;;;;;10.43;82.25;99328.31;5036552;28;46260;-50
2021/12/27 11:28:43;;;;;;;;;2.00;2.00;;;;;10.39;81.90;99325.19;5036342;28;45326;-52
2021/12/27 11:31:14;;;;;;;;;7.33;7.33;;;;;10.38;82.24;99317.41;5036728;28;45354;-51
2021/12/27 11:34:05;;;;;;;;;8.67;7.00;;;;;10.40;82.46;99318.84;5036787;28;45453;-52